sensor_id;sensor_type;location;lat;lon;timestamp;temperature;humidity
13093;DHT22;6612;49.568;11.000;2024-03-06T00:00:01;12.30;61.60
13093;DHT22;6612;49.568;11.000;2024-03-06T00:02:29;12.30;61.60
13093;DHT22;6612;49.568;11.000;2024-03-06T00:04:58;12.30;61.60
13093;DHT22;6612;49.568;11.000;2024-03-06T00:07:25;12.30;61.70
13093;DHT22;6612;49.568;11.000;2024-03-06T00:09:52;12.30;61.60
13093;DHT22;6612;49.568;11.000;2024-03-06T00:12:19;12.30;61.70
13093;DHT22;6612;49.568;11.000;2024-03-06T00:14:46;12.30;61.80
13093;DHT22;6612;49.568;11.000;2024-03-06T00:17:13;12.30;61.80
13093;DHT22;6612;49.568;11.000;2024-03-06T00:19:41;12.30;61.90
13093;DHT22;6612;49.568;11.000;2024-03-06T00:22:10;12.20;61.90
13093;DHT22;6612;49.568;11.000;2024-03-06T00:24:37;12.20;62.10
13093;DHT22;6612;49.568;11.000;2024-03-06T00:27:04;12.30;62.10
13093;DHT22;6612;49.568;11.000;2024-03-06T00:29:31;12.20;62.00
13093;DHT22;6612;49.568;11.000;2024-03-06T00:31:58;12.30;62.20
13093;DHT22;6612;49.568;11.000;2024-03-06T00:34:25;12.20;62.10
13093;DHT22;6612;49.568;11.000;2024-03-06T00:36:53;12.20;62.20
13093;DHT22;6612;49.568;11.000;2024-03-06T00:39:22;12.20;62.20
13093;DHT22;6612;49.568;11.000;2024-03-06T00:41:50;12.20;62.40
13093;DHT22;6612;49.568;11.000;2024-03-06T00:44:17;12.20;62.30
13093;DHT22;6612;49.568;11.000;2024-03-06T00:46:44;12.20;62.40
13093;DHT22;6612;49.568;11.000;2024-03-06T00:49:11;12.20;62.40
13093;DHT22;6612;49.568;11.000;2024-03-06T00:51:38;12.20;62.50
13093;DHT22;6612;49.568;11.000;2024-03-06T00:54:05;12.20;62.50
13093;DHT22;6612;49.568;11.000;2024-03-06T00:56:37;12.20;62.60
13093;DHT22;6612;49.568;11.000;2024-03-06T00:59:04;12.20;62.90
13093;DHT22;6612;49.568;11.000;2024-03-06T01:01:31;12.20;62.70
13093;DHT22;6612;49.568;11.000;2024-03-06T01:03:58;12.20;62.70
13093;DHT22;6612;49.568;11.000;2024-03-06T01:06:25;12.20;62.80
13093;DHT22;6612;49.568;11.000;2024-03-06T01:08:52;12.20;62.90
13093;DHT22;6612;49.568;11.000;2024-03-06T01:11:20;12.20;63.00
13093;DHT22;6612;49.568;11.000;2024-03-06T01:13:48;12.20;63.10
13093;DHT22;6612;49.568;11.000;2024-03-06T01:16:15;12.20;63.10
13093;DHT22;6612;49.568;11.000;2024-03-06T01:18:43;12.20;63.00
13093;DHT22;6612;49.568;11.000;2024-03-06T01:21:10;12.20;63.00
13093;DHT22;6612;49.568;11.000;2024-03-06T01:23:37;12.20;62.90
13093;DHT22;6612;49.568;11.000;2024-03-06T01:26:04;12.20;62.80
13093;DHT22;6612;49.568;11.000;2024-03-06T01:28:31;12.30;62.80
13093;DHT22;6612;49.568;11.000;2024-03-06T01:31:00;12.20;62.70
13093;DHT22;6612;49.568;11.000;2024-03-06T01:33:27;12.30;63.00
13093;DHT22;6612;49.568;11.000;2024-03-06T01:35:54;12.20;62.70
13093;DHT22;6612;49.568;11.000;2024-03-06T01:38:21;12.20;62.70
13093;DHT22;6612;49.568;11.000;2024-03-06T01:40:48;12.20;62.70
13093;DHT22;6612;49.568;11.000;2024-03-06T01:43:20;12.20;62.70
13093;DHT22;6612;49.568;11.000;2024-03-06T01:45:48;12.20;63.00
13093;DHT22;6612;49.568;11.000;2024-03-06T01:48:17;12.20;62.70
13093;DHT22;6612;49.568;11.000;2024-03-06T01:50:47;12.20;62.80
13093;DHT22;6612;49.568;11.000;2024-03-06T01:53:15;12.20;62.60
13093;DHT22;6612;49.568;11.000;2024-03-06T01:55:43;12.10;62.60
13093;DHT22;6612;49.568;11.000;2024-03-06T01:58:10;12.10;62.50
13093;DHT22;6612;49.568;11.000;2024-03-06T02:00:37;12.10;62.60
13093;DHT22;6612;49.568;11.000;2024-03-06T02:03:04;12.10;62.70
13093;DHT22;6612;49.568;11.000;2024-03-06T02:05:33;12.10;62.90
13093;DHT22;6612;49.568;11.000;2024-03-06T02:08:00;12.10;63.10
13093;DHT22;6612;49.568;11.000;2024-03-06T02:10:28;12.10;62.90
13093;DHT22;6612;49.568;11.000;2024-03-06T02:12:55;12.00;62.90
13093;DHT22;6612;49.568;11.000;2024-03-06T02:15:22;12.00;62.90
13093;DHT22;6612;49.568;11.000;2024-03-06T02:17:49;12.00;62.90
13093;DHT22;6612;49.568;11.000;2024-03-06T02:20:16;12.00;62.90
13093;DHT22;6612;49.568;11.000;2024-03-06T02:22:45;12.00;62.90
13093;DHT22;6612;49.568;11.000;2024-03-06T02:25:12;12.00;62.90
13093;DHT22;6612;49.568;11.000;2024-03-06T02:27:40;12.00;62.90
13093;DHT22;6612;49.568;11.000;2024-03-06T02:30:08;11.90;62.70
13093;DHT22;6612;49.568;11.000;2024-03-06T02:32:35;11.90;62.70
13093;DHT22;6612;49.568;11.000;2024-03-06T02:35:02;11.90;62.70
13093;DHT22;6612;49.568;11.000;2024-03-06T02:37:34;11.90;62.70
13093;DHT22;6612;49.568;11.000;2024-03-06T02:40:03;11.80;62.70
13093;DHT22;6612;49.568;11.000;2024-03-06T02:42:32;11.80;62.90
13093;DHT22;6612;49.568;11.000;2024-03-06T02:45:00;11.80;62.90
13093;DHT22;6612;49.568;11.000;2024-03-06T02:47:27;11.80;63.10
13093;DHT22;6612;49.568;11.000;2024-03-06T02:49:54;11.80;63.10
13093;DHT22;6612;49.568;11.000;2024-03-06T02:52:21;11.80;63.20
13093;DHT22;6612;49.568;11.000;2024-03-06T02:54:48;11.80;63.30
13093;DHT22;6612;49.568;11.000;2024-03-06T02:57:17;11.80;63.30
13093;DHT22;6612;49.568;11.000;2024-03-06T02:59:44;11.70;63.40
13093;DHT22;6612;49.568;11.000;2024-03-06T03:02:11;11.80;63.30
13093;DHT22;6612;49.568;11.000;2024-03-06T03:04:38;11.70;63.20
13093;DHT22;6612;49.568;11.000;2024-03-06T03:07:05;11.70;63.10
13093;DHT22;6612;49.568;11.000;2024-03-06T03:09:32;11.70;63.10
13093;DHT22;6612;49.568;11.000;2024-03-06T03:12:01;11.70;63.20
13093;DHT22;6612;49.568;11.000;2024-03-06T03:14:29;11.70;63.30
13093;DHT22;6612;49.568;11.000;2024-03-06T03:16:57;11.70;63.50
13093;DHT22;6612;49.568;11.000;2024-03-06T03:19:24;11.70;63.60
13093;DHT22;6612;49.568;11.000;2024-03-06T03:21:51;11.70;63.60
13093;DHT22;6612;49.568;11.000;2024-03-06T03:24:18;11.70;63.60
13093;DHT22;6612;49.568;11.000;2024-03-06T03:26:47;11.70;63.60
13093;DHT22;6612;49.568;11.000;2024-03-06T03:29:14;11.70;63.60
13093;DHT22;6612;49.568;11.000;2024-03-06T03:31:42;11.70;63.60
13093;DHT22;6612;49.568;11.000;2024-03-06T03:34:09;11.70;63.70
13093;DHT22;6612;49.568;11.000;2024-03-06T03:36:40;11.60;63.60
13093;DHT22;6612;49.568;11.000;2024-03-06T03:39:07;11.70;64.00
13093;DHT22;6612;49.568;11.000;2024-03-06T03:41:43;11.70;63.80
13093;DHT22;6612;49.568;11.000;2024-03-06T03:44:11;11.60;63.90
13093;DHT22;6612;49.568;11.000;2024-03-06T03:46:38;11.70;63.80
13093;DHT22;6612;49.568;11.000;2024-03-06T03:49:06;11.60;63.80
13093;DHT22;6612;49.568;11.000;2024-03-06T03:51:34;11.60;64.00
13093;DHT22;6612;49.568;11.000;2024-03-06T03:54:02;11.70;64.20
13093;DHT22;6612;49.568;11.000;2024-03-06T03:56:29;11.70;64.10
13093;DHT22;6612;49.568;11.000;2024-03-06T03:58:56;11.70;64.10
13093;DHT22;6612;49.568;11.000;2024-03-06T04:01:24;11.70;64.20
13093;DHT22;6612;49.568;11.000;2024-03-06T04:03:51;11.70;64.00
13093;DHT22;6612;49.568;11.000;2024-03-06T04:06:19;11.70;64.00
13093;DHT22;6612;49.568;11.000;2024-03-06T04:08:46;11.70;64.10
13093;DHT22;6612;49.568;11.000;2024-03-06T04:11:14;11.70;64.00
13093;DHT22;6612;49.568;11.000;2024-03-06T04:13:41;11.70;64.00
13093;DHT22;6612;49.568;11.000;2024-03-06T04:16:08;11.70;64.00
13093;DHT22;6612;49.568;11.000;2024-03-06T04:18:35;11.70;64.10
13093;DHT22;6612;49.568;11.000;2024-03-06T04:21:03;11.70;64.10
13093;DHT22;6612;49.568;11.000;2024-03-06T04:23:32;11.70;64.20
13093;DHT22;6612;49.568;11.000;2024-03-06T04:25:59;11.80;64.40
13093;DHT22;6612;49.568;11.000;2024-03-06T04:28:26;11.70;64.30
13093;DHT22;6612;49.568;11.000;2024-03-06T04:30:53;11.70;64.30
13093;DHT22;6612;49.568;11.000;2024-03-06T04:33:20;11.80;64.40
13093;DHT22;6612;49.568;11.000;2024-03-06T04:35:48;11.80;64.50
13093;DHT22;6612;49.568;11.000;2024-03-06T04:38:15;11.80;64.40
13093;DHT22;6612;49.568;11.000;2024-03-06T04:40:43;11.80;64.40
13093;DHT22;6612;49.568;11.000;2024-03-06T04:43:10;11.80;64.50
13093;DHT22;6612;49.568;11.000;2024-03-06T04:45:37;11.80;64.40
13093;DHT22;6612;49.568;11.000;2024-03-06T04:48:05;11.80;64.50
13093;DHT22;6612;49.568;11.000;2024-03-06T04:50:32;11.80;64.50
13093;DHT22;6612;49.568;11.000;2024-03-06T04:52:59;11.90;64.60
13093;DHT22;6612;49.568;11.000;2024-03-06T04:55:26;11.80;64.50
13093;DHT22;6612;49.568;11.000;2024-03-06T04:57:55;11.80;64.50
13093;DHT22;6612;49.568;11.000;2024-03-06T05:00:22;11.80;64.60
13093;DHT22;6612;49.568;11.000;2024-03-06T05:02:49;11.90;64.50
13093;DHT22;6612;49.568;11.000;2024-03-06T05:05:16;11.90;64.50
13093;DHT22;6612;49.568;11.000;2024-03-06T05:07:43;11.90;64.60
13093;DHT22;6612;49.568;11.000;2024-03-06T05:10:11;11.80;64.50
13093;DHT22;6612;49.568;11.000;2024-03-06T05:12:38;11.90;64.60
13093;DHT22;6612;49.568;11.000;2024-03-06T05:15:07;11.80;64.50
13093;DHT22;6612;49.568;11.000;2024-03-06T05:17:34;11.90;64.80
13093;DHT22;6612;49.568;11.000;2024-03-06T05:20:02;11.90;64.60
13093;DHT22;6612;49.568;11.000;2024-03-06T05:22:30;11.90;64.60
13093;DHT22;6612;49.568;11.000;2024-03-06T05:24:57;11.80;64.50
13093;DHT22;6612;49.568;11.000;2024-03-06T05:27:24;11.90;64.60
13093;DHT22;6612;49.568;11.000;2024-03-06T05:29:51;11.90;64.60
13093;DHT22;6612;49.568;11.000;2024-03-06T05:32:20;11.80;64.50
13093;DHT22;6612;49.568;11.000;2024-03-06T05:34:47;11.80;64.60
13093;DHT22;6612;49.568;11.000;2024-03-06T05:37:14;11.80;64.50
13093;DHT22;6612;49.568;11.000;2024-03-06T05:39:41;11.80;64.50
13093;DHT22;6612;49.568;11.000;2024-03-06T05:42:08;11.80;64.50
13093;DHT22;6612;49.568;11.000;2024-03-06T05:44:35;11.80;64.50
13093;DHT22;6612;49.568;11.000;2024-03-06T05:47:02;11.80;64.50
13093;DHT22;6612;49.568;11.000;2024-03-06T05:49:31;11.80;64.50
13093;DHT22;6612;49.568;11.000;2024-03-06T05:51:58;11.70;65.20
13093;DHT22;6612;49.568;11.000;2024-03-06T05:54:25;11.70;64.30
13093;DHT22;6612;49.568;11.000;2024-03-06T05:56:53;11.70;64.40
13093;DHT22;6612;49.568;11.000;2024-03-06T05:59:20;11.70;64.40
13093;DHT22;6612;49.568;11.000;2024-03-06T06:01:49;11.70;64.50
13093;DHT22;6612;49.568;11.000;2024-03-06T06:04:16;11.70;64.70
13093;DHT22;6612;49.568;11.000;2024-03-06T06:06:45;11.60;64.70
13093;DHT22;6612;49.568;11.000;2024-03-06T06:09:12;11.60;65.00
13093;DHT22;6612;49.568;11.000;2024-03-06T06:11:41;11.60;65.00
13093;DHT22;6612;49.568;11.000;2024-03-06T06:14:09;11.60;65.00
13093;DHT22;6612;49.568;11.000;2024-03-06T06:16:37;11.60;65.00
13093;DHT22;6612;49.568;11.000;2024-03-06T06:19:04;11.60;65.00
13093;DHT22;6612;49.568;11.000;2024-03-06T06:21:32;11.60;65.00
13093;DHT22;6612;49.568;11.000;2024-03-06T06:24:03;11.60;65.10
13093;DHT22;6612;49.568;11.000;2024-03-06T06:26:30;11.60;65.40
13093;DHT22;6612;49.568;11.000;2024-03-06T06:28:57;11.60;65.40
13093;DHT22;6612;49.568;11.000;2024-03-06T06:31:24;11.60;65.60
13093;DHT22;6612;49.568;11.000;2024-03-06T06:33:53;11.70;65.80
13093;DHT22;6612;49.568;11.000;2024-03-06T06:36:20;11.70;65.90
13093;DHT22;6612;49.568;11.000;2024-03-06T06:38:47;11.70;65.90
13093;DHT22;6612;49.568;11.000;2024-03-06T06:41:16;11.80;66.00
13093;DHT22;6612;49.568;11.000;2024-03-06T06:43:44;11.80;66.10
13093;DHT22;6612;49.568;11.000;2024-03-06T06:46:12;11.80;66.10
13093;DHT22;6612;49.568;11.000;2024-03-06T06:48:39;11.80;66.20
13093;DHT22;6612;49.568;11.000;2024-03-06T06:51:06;11.90;66.30
13093;DHT22;6612;49.568;11.000;2024-03-06T06:53:33;11.90;66.30
13093;DHT22;6612;49.568;11.000;2024-03-06T06:56:00;11.90;66.40
13093;DHT22;6612;49.568;11.000;2024-03-06T06:58:28;12.00;66.50
13093;DHT22;6612;49.568;11.000;2024-03-06T07:00:55;12.00;66.60
13093;DHT22;6612;49.568;11.000;2024-03-06T07:03:22;12.10;66.50
13093;DHT22;6612;49.568;11.000;2024-03-06T07:05:55;12.10;66.50
13093;DHT22;6612;49.568;11.000;2024-03-06T07:08:22;12.10;66.40
13093;DHT22;6612;49.568;11.000;2024-03-06T07:10:49;12.20;66.20
13093;DHT22;6612;49.568;11.000;2024-03-06T07:13:16;12.20;66.30
13093;DHT22;6612;49.568;11.000;2024-03-06T07:15:46;12.30;66.50
13093;DHT22;6612;49.568;11.000;2024-03-06T07:18:13;12.30;66.70
13093;DHT22;6612;49.568;11.000;2024-03-06T07:20:40;12.40;67.00
13093;DHT22;6612;49.568;11.000;2024-03-06T07:23:07;12.40;67.10
13093;DHT22;6612;49.568;11.000;2024-03-06T07:25:34;12.50;67.30
13093;DHT22;6612;49.568;11.000;2024-03-06T07:28:02;12.60;67.60
13093;DHT22;6612;49.568;11.000;2024-03-06T07:30:29;12.70;67.70
13093;DHT22;6612;49.568;11.000;2024-03-06T07:32:58;12.80;67.80
13093;DHT22;6612;49.568;11.000;2024-03-06T07:35:25;12.90;68.00
13093;DHT22;6612;49.568;11.000;2024-03-06T07:37:52;13.10;68.30
13093;DHT22;6612;49.568;11.000;2024-03-06T07:40:19;13.30;68.40
13093;DHT22;6612;49.568;11.000;2024-03-06T07:42:46;13.40;68.00
13093;DHT22;6612;49.568;11.000;2024-03-06T07:45:14;13.50;67.40
13093;DHT22;6612;49.568;11.000;2024-03-06T07:47:41;13.60;67.00
13093;DHT22;6612;49.568;11.000;2024-03-06T07:50:10;13.70;66.60
13093;DHT22;6612;49.568;11.000;2024-03-06T07:52:38;13.70;66.20
13093;DHT22;6612;49.568;11.000;2024-03-06T07:55:05;13.80;65.90
13093;DHT22;6612;49.568;11.000;2024-03-06T07:57:33;13.80;65.60
13093;DHT22;6612;49.568;11.000;2024-03-06T08:00:00;13.80;65.30
13093;DHT22;6612;49.568;11.000;2024-03-06T08:02:27;13.80;65.00
13093;DHT22;6612;49.568;11.000;2024-03-06T08:04:55;13.80;64.80
13093;DHT22;6612;49.568;11.000;2024-03-06T08:07:23;13.80;64.70
13093;DHT22;6612;49.568;11.000;2024-03-06T08:09:50;13.80;64.50
13093;DHT22;6612;49.568;11.000;2024-03-06T08:12:17;13.80;64.50
13093;DHT22;6612;49.568;11.000;2024-03-06T08:14:44;13.80;64.80
13093;DHT22;6612;49.568;11.000;2024-03-06T08:17:11;13.80;65.90
13093;DHT22;6612;49.568;11.000;2024-03-06T08:19:38;13.90;65.50
13093;DHT22;6612;49.568;11.000;2024-03-06T08:22:05;13.90;65.70
13093;DHT22;6612;49.568;11.000;2024-03-06T08:24:34;14.00;65.70
13093;DHT22;6612;49.568;11.000;2024-03-06T08:27:01;14.00;66.50
13093;DHT22;6612;49.568;11.000;2024-03-06T08:29:29;14.10;65.50
13093;DHT22;6612;49.568;11.000;2024-03-06T08:31:55;14.20;65.20
13093;DHT22;6612;49.568;11.000;2024-03-06T08:34:25;14.20;64.70
13093;DHT22;6612;49.568;11.000;2024-03-06T08:36:52;14.20;63.90
13093;DHT22;6612;49.568;11.000;2024-03-06T08:39:20;14.20;63.30
13093;DHT22;6612;49.568;11.000;2024-03-06T08:41:49;14.20;62.20
13093;DHT22;6612;49.568;11.000;2024-03-06T08:44:16;14.20;61.50
13093;DHT22;6612;49.568;11.000;2024-03-06T08:46:43;14.10;61.50
13093;DHT22;6612;49.568;11.000;2024-03-06T08:49:10;14.10;61.80
13093;DHT22;6612;49.568;11.000;2024-03-06T08:51:37;14.10;62.00
13093;DHT22;6612;49.568;11.000;2024-03-06T08:54:04;14.10;62.10
13093;DHT22;6612;49.568;11.000;2024-03-06T08:56:31;14.20;63.10
13093;DHT22;6612;49.568;11.000;2024-03-06T08:59:01;14.20;62.10
13093;DHT22;6612;49.568;11.000;2024-03-06T09:01:29;14.30;61.90
13093;DHT22;6612;49.568;11.000;2024-03-06T09:03:56;14.40;61.80
13093;DHT22;6612;49.568;11.000;2024-03-06T09:06:23;14.40;61.40
13093;DHT22;6612;49.568;11.000;2024-03-06T09:08:50;14.50;61.30
13093;DHT22;6612;49.568;11.000;2024-03-06T09:11:17;14.50;60.50
13093;DHT22;6612;49.568;11.000;2024-03-06T09:13:44;14.50;59.60
13093;DHT22;6612;49.568;11.000;2024-03-06T09:16:12;14.50;59.30
13093;DHT22;6612;49.568;11.000;2024-03-06T09:18:39;14.50;59.00
13093;DHT22;6612;49.568;11.000;2024-03-06T09:21:06;14.40;59.10
13093;DHT22;6612;49.568;11.000;2024-03-06T09:23:33;14.40;59.00
13093;DHT22;6612;49.568;11.000;2024-03-06T09:26:00;14.40;58.90
13093;DHT22;6612;49.568;11.000;2024-03-06T09:28:27;14.40;58.90
13093;DHT22;6612;49.568;11.000;2024-03-06T09:30:54;14.40;58.80
13093;DHT22;6612;49.568;11.000;2024-03-06T09:33:24;14.30;58.50
13093;DHT22;6612;49.568;11.000;2024-03-06T09:35:51;14.30;58.40
13093;DHT22;6612;49.568;11.000;2024-03-06T09:38:18;14.30;58.00
13093;DHT22;6612;49.568;11.000;2024-03-06T09:40:45;14.30;58.00
13093;DHT22;6612;49.568;11.000;2024-03-06T09:43:12;14.30;58.30
13093;DHT22;6612;49.568;11.000;2024-03-06T09:45:39;14.30;58.80
13093;DHT22;6612;49.568;11.000;2024-03-06T09:48:08;14.30;58.70
13093;DHT22;6612;49.568;11.000;2024-03-06T09:50:37;14.30;59.00
13093;DHT22;6612;49.568;11.000;2024-03-06T09:53:08;14.40;59.10
13093;DHT22;6612;49.568;11.000;2024-03-06T09:55:37;14.50;59.50
13093;DHT22;6612;49.568;11.000;2024-03-06T09:58:04;14.60;60.50
13093;DHT22;6612;49.568;11.000;2024-03-06T10:00:32;14.80;61.50
13093;DHT22;6612;49.568;11.000;2024-03-06T10:02:59;15.00;60.90
13093;DHT22;6612;49.568;11.000;2024-03-06T10:05:27;15.30;60.50
13093;DHT22;6612;49.568;11.000;2024-03-06T10:07:55;15.40;60.00
13093;DHT22;6612;49.568;11.000;2024-03-06T10:10:25;15.60;59.40
13093;DHT22;6612;49.568;11.000;2024-03-06T10:12:52;15.70;59.80
13093;DHT22;6612;49.568;11.000;2024-03-06T10:15:20;15.90;60.00
13093;DHT22;6612;49.568;11.000;2024-03-06T10:17:47;16.20;60.00
13093;DHT22;6612;49.568;11.000;2024-03-06T10:20:18;16.30;56.90
13093;DHT22;6612;49.568;11.000;2024-03-06T10:22:48;16.50;57.00
13093;DHT22;6612;49.568;11.000;2024-03-06T10:25:18;16.50;56.70
13093;DHT22;6612;49.568;11.000;2024-03-06T10:27:46;16.60;55.60
13093;DHT22;6612;49.568;11.000;2024-03-06T10:30:14;16.70;56.10
13093;DHT22;6612;49.568;11.000;2024-03-06T10:32:42;16.70;56.50
13093;DHT22;6612;49.568;11.000;2024-03-06T10:35:18;16.80;56.20
13093;DHT22;6612;49.568;11.000;2024-03-06T10:37:46;16.90;55.10
13093;DHT22;6612;49.568;11.000;2024-03-06T10:40:15;16.90;55.70
13093;DHT22;6612;49.568;11.000;2024-03-06T10:42:46;16.90;55.20
13093;DHT22;6612;49.568;11.000;2024-03-06T10:45:14;16.90;55.00
13093;DHT22;6612;49.568;11.000;2024-03-06T10:47:46;16.90;54.60
13093;DHT22;6612;49.568;11.000;2024-03-06T10:50:15;16.90;54.00
13093;DHT22;6612;49.568;11.000;2024-03-06T10:52:44;16.90;54.20
13093;DHT22;6612;49.568;11.000;2024-03-06T10:55:13;16.90;54.00
13093;DHT22;6612;49.568;11.000;2024-03-06T10:57:41;16.80;53.90
13093;DHT22;6612;49.568;11.000;2024-03-06T11:00:11;16.80;53.60
13093;DHT22;6612;49.568;11.000;2024-03-06T11:02:45;16.80;53.40
13093;DHT22;6612;49.568;11.000;2024-03-06T11:05:14;16.70;53.20
13093;DHT22;6612;49.568;11.000;2024-03-06T11:07:41;16.70;53.20
13093;DHT22;6612;49.568;11.000;2024-03-06T11:10:09;16.60;53.10
13093;DHT22;6612;49.568;11.000;2024-03-06T11:12:42;16.60;53.10
13093;DHT22;6612;49.568;11.000;2024-03-06T11:15:14;16.50;53.00
13093;DHT22;6612;49.568;11.000;2024-03-06T11:17:42;16.40;52.10
13093;DHT22;6612;49.568;11.000;2024-03-06T11:20:17;16.30;52.90
13093;DHT22;6612;49.568;11.000;2024-03-06T11:23:07;16.20;51.80
13093;DHT22;6612;49.568;11.000;2024-03-06T11:25:59;16.10;49.10
13093;DHT22;6612;49.568;11.000;2024-03-06T11:28:29;16.00;50.50
13093;DHT22;6612;49.568;11.000;2024-03-06T11:31:00;15.90;51.70
13093;DHT22;6612;49.568;11.000;2024-03-06T11:33:38;15.80;51.40
13093;DHT22;6612;49.568;11.000;2024-03-06T11:36:18;15.80;51.00
13093;DHT22;6612;49.568;11.000;2024-03-06T11:38:52;15.70;51.20
13093;DHT22;6612;49.568;11.000;2024-03-06T11:41:21;15.60;51.10
13093;DHT22;6612;49.568;11.000;2024-03-06T11:43:50;15.50;52.00
13093;DHT22;6612;49.568;11.000;2024-03-06T11:46:21;15.50;52.30
13093;DHT22;6612;49.568;11.000;2024-03-06T11:48:54;15.40;52.40
13093;DHT22;6612;49.568;11.000;2024-03-06T11:51:22;15.40;52.20
13093;DHT22;6612;49.568;11.000;2024-03-06T11:53:50;15.40;52.40
13093;DHT22;6612;49.568;11.000;2024-03-06T11:56:18;15.40;52.40
13093;DHT22;6612;49.568;11.000;2024-03-06T11:58:46;15.40;52.50
13093;DHT22;6612;49.568;11.000;2024-03-06T12:01:14;15.40;52.40
13093;DHT22;6612;49.568;11.000;2024-03-06T12:03:43;15.40;52.60
13093;DHT22;6612;49.568;11.000;2024-03-06T12:06:11;15.40;52.70
13093;DHT22;6612;49.568;11.000;2024-03-06T12:08:39;15.40;52.80
13093;DHT22;6612;49.568;11.000;2024-03-06T12:11:06;15.40;52.40
13093;DHT22;6612;49.568;11.000;2024-03-06T12:13:34;15.40;52.10
13093;DHT22;6612;49.568;11.000;2024-03-06T12:16:05;15.40;52.10
13093;DHT22;6612;49.568;11.000;2024-03-06T12:18:33;15.40;51.80
13093;DHT22;6612;49.568;11.000;2024-03-06T12:21:02;15.40;52.10
13093;DHT22;6612;49.568;11.000;2024-03-06T12:23:29;15.40;51.90
13093;DHT22;6612;49.568;11.000;2024-03-06T12:26:04;15.40;52.10
13093;DHT22;6612;49.568;11.000;2024-03-06T12:28:31;15.40;51.80
13093;DHT22;6612;49.568;11.000;2024-03-06T12:30:58;15.40;52.10
13093;DHT22;6612;49.568;11.000;2024-03-06T12:33:28;15.40;52.10
13093;DHT22;6612;49.568;11.000;2024-03-06T12:36:04;15.40;52.00
13093;DHT22;6612;49.568;11.000;2024-03-06T12:38:32;15.50;51.40
13093;DHT22;6612;49.568;11.000;2024-03-06T12:41:00;15.50;52.10
13093;DHT22;6612;49.568;11.000;2024-03-06T12:43:27;15.50;52.00
13093;DHT22;6612;49.568;11.000;2024-03-06T12:45:55;15.60;52.10
13093;DHT22;6612;49.568;11.000;2024-03-06T12:48:23;15.60;52.00
13093;DHT22;6612;49.568;11.000;2024-03-06T12:50:51;15.70;52.00
13093;DHT22;6612;49.568;11.000;2024-03-06T12:53:22;15.70;51.90
13093;DHT22;6612;49.568;11.000;2024-03-06T12:55:49;15.80;51.50
13093;DHT22;6612;49.568;11.000;2024-03-06T12:58:16;15.90;51.50
13093;DHT22;6612;49.568;11.000;2024-03-06T13:00:43;15.90;51.40
13093;DHT22;6612;49.568;11.000;2024-03-06T13:03:10;16.00;51.70
13093;DHT22;6612;49.568;11.000;2024-03-06T13:05:37;16.00;51.60
13093;DHT22;6612;49.568;11.000;2024-03-06T13:08:04;16.10;51.80
13093;DHT22;6612;49.568;11.000;2024-03-06T13:10:33;16.20;51.30
13093;DHT22;6612;49.568;11.000;2024-03-06T13:13:01;16.30;50.40
13093;DHT22;6612;49.568;11.000;2024-03-06T13:15:28;16.30;50.10
13093;DHT22;6612;49.568;11.000;2024-03-06T13:17:55;16.30;50.10
13093;DHT22;6612;49.568;11.000;2024-03-06T13:20:23;16.30;50.00
13093;DHT22;6612;49.568;11.000;2024-03-06T13:22:50;16.40;49.70
13093;DHT22;6612;49.568;11.000;2024-03-06T13:25:17;16.30;49.30
13093;DHT22;6612;49.568;11.000;2024-03-06T13:27:46;16.30;49.20
13093;DHT22;6612;49.568;11.000;2024-03-06T13:30:13;16.30;49.10
13093;DHT22;6612;49.568;11.000;2024-03-06T13:32:41;16.30;49.20
13093;DHT22;6612;49.568;11.000;2024-03-06T13:35:08;16.30;49.40
13093;DHT22;6612;49.568;11.000;2024-03-06T13:37:39;16.30;49.30
13093;DHT22;6612;49.568;11.000;2024-03-06T13:40:07;16.30;49.30
13093;DHT22;6612;49.568;11.000;2024-03-06T13:42:36;16.30;49.20
13093;DHT22;6612;49.568;11.000;2024-03-06T13:45:06;16.30;49.30
13093;DHT22;6612;49.568;11.000;2024-03-06T13:47:37;16.30;49.10
13093;DHT22;6612;49.568;11.000;2024-03-06T13:50:06;16.30;49.30
13093;DHT22;6612;49.568;11.000;2024-03-06T13:52:35;16.40;49.30
13093;DHT22;6612;49.568;11.000;2024-03-06T13:55:02;16.40;49.40
13093;DHT22;6612;49.568;11.000;2024-03-06T13:57:30;16.40;49.20
13093;DHT22;6612;49.568;11.000;2024-03-06T13:59:59;16.40;48.90
13093;DHT22;6612;49.568;11.000;2024-03-06T14:02:28;16.40;48.80
13093;DHT22;6612;49.568;11.000;2024-03-06T14:04:55;16.40;48.60
13093;DHT22;6612;49.568;11.000;2024-03-06T14:07:22;16.40;48.70
13093;DHT22;6612;49.568;11.000;2024-03-06T14:09:49;16.40;48.50
13093;DHT22;6612;49.568;11.000;2024-03-06T14:12:17;16.40;48.50
13093;DHT22;6612;49.568;11.000;2024-03-06T14:14:44;16.40;48.40
13093;DHT22;6612;49.568;11.000;2024-03-06T14:17:11;16.40;48.30
13093;DHT22;6612;49.568;11.000;2024-03-06T14:19:40;16.40;48.20
13093;DHT22;6612;49.568;11.000;2024-03-06T14:22:08;16.40;48.00
13093;DHT22;6612;49.568;11.000;2024-03-06T14:24:35;16.40;48.00
13093;DHT22;6612;49.568;11.000;2024-03-06T14:27:02;16.40;47.90
13093;DHT22;6612;49.568;11.000;2024-03-06T14:29:30;16.30;48.00
13093;DHT22;6612;49.568;11.000;2024-03-06T14:31:57;16.30;47.90
13093;DHT22;6612;49.568;11.000;2024-03-06T14:34:24;16.20;47.80
13093;DHT22;6612;49.568;11.000;2024-03-06T14:36:53;16.20;47.80
13093;DHT22;6612;49.568;11.000;2024-03-06T14:39:20;16.20;47.80
13093;DHT22;6612;49.568;11.000;2024-03-06T14:41:49;16.10;47.90
13093;DHT22;6612;49.568;11.000;2024-03-06T14:44:16;16.10;48.00
13093;DHT22;6612;49.568;11.000;2024-03-06T14:46:43;16.10;48.00
13093;DHT22;6612;49.568;11.000;2024-03-06T14:49:10;16.00;48.00
13093;DHT22;6612;49.568;11.000;2024-03-06T14:51:37;16.00;48.10
13093;DHT22;6612;49.568;11.000;2024-03-06T14:54:06;16.00;48.30
13093;DHT22;6612;49.568;11.000;2024-03-06T14:56:33;16.00;48.20
13093;DHT22;6612;49.568;11.000;2024-03-06T14:59:00;16.00;48.40
13093;DHT22;6612;49.568;11.000;2024-03-06T15:01:27;16.00;49.00
13093;DHT22;6612;49.568;11.000;2024-03-06T15:03:54;16.10;48.40
13093;DHT22;6612;49.568;11.000;2024-03-06T15:06:22;16.10;48.40
13093;DHT22;6612;49.568;11.000;2024-03-06T15:08:49;16.10;48.20
13093;DHT22;6612;49.568;11.000;2024-03-06T15:11:18;16.10;48.10
13093;DHT22;6612;49.568;11.000;2024-03-06T15:13:47;16.00;47.90
13093;DHT22;6612;49.568;11.000;2024-03-06T15:16:14;16.00;47.80
13093;DHT22;6612;49.568;11.000;2024-03-06T15:18:41;16.00;47.90
13093;DHT22;6612;49.568;11.000;2024-03-06T15:21:08;16.00;47.90
13093;DHT22;6612;49.568;11.000;2024-03-06T15:23:38;16.00;48.10
13093;DHT22;6612;49.568;11.000;2024-03-06T15:26:05;15.90;48.30
13093;DHT22;6612;49.568;11.000;2024-03-06T15:28:34;15.90;48.50
13093;DHT22;6612;49.568;11.000;2024-03-06T15:31:01;15.90;48.50
13093;DHT22;6612;49.568;11.000;2024-03-06T15:33:29;15.90;48.70